createdAt,value
2023-07-19T00:00:30.174Z,82.39
2023-07-19T00:03:18.105Z,94.51
2023-07-19T00:05:46.190Z,98.34
2023-07-19T00:08:15.661Z,96.49
2023-07-19T00:10:43.764Z,89.67
2023-07-19T00:13:11.804Z,88.11
2023-07-19T00:15:39.760Z,84.56
2023-07-19T00:18:07.819Z,83.82
2023-07-19T00:20:35.834Z,86.96
2023-07-19T00:23:03.952Z,88.92
2023-07-19T00:25:32.856Z,86.76
2023-07-19T00:28:00.796Z,91.70
2023-07-19T00:30:29.461Z,97.23
2023-07-19T00:32:57.761Z,99.26
2023-07-19T00:35:27.363Z,97.42
2023-07-19T00:37:55.546Z,93.75
2023-07-19T00:40:23.683Z,91.12
2023-07-19T00:42:58.680Z,99.37
2023-07-19T00:45:27.958Z,100.00
2023-07-19T00:47:57.985Z,96.24
2023-07-19T00:50:26.040Z,91.86
2023-07-19T00:52:54.171Z,96.92
2023-07-19T00:55:22.214Z,97.93
2023-07-19T00:57:50.313Z,100.00
2023-07-19T01:00:19.602Z,100.00
2023-07-19T01:02:47.818Z,100.00
2023-07-19T01:05:17.552Z,100.00
2023-07-19T01:07:45.876Z,100.00
2023-07-19T01:10:14.496Z,100.00
2023-07-19T01:12:42.531Z,100.00
2023-07-19T01:15:11.243Z,100.00
2023-07-19T01:17:39.392Z,100.00
2023-07-19T01:20:09.878Z,100.00
2023-07-19T01:22:38.005Z,100.00
2023-07-19T01:25:06.641Z,100.00
2023-07-19T01:27:34.558Z,100.00
2023-07-19T01:30:02.616Z,100.00
2023-07-19T01:32:30.697Z,100.00
2023-07-19T01:34:58.967Z,100.00
2023-07-19T01:37:29.398Z,100.00
2023-07-19T01:39:57.411Z,100.00
2023-07-19T01:42:25.458Z,100.00
2023-07-19T01:44:55.107Z,100.00
2023-07-19T01:47:23.291Z,100.00
2023-07-19T01:49:51.296Z,100.00
2023-07-19T01:52:20.024Z,100.00
2023-07-19T01:54:48.148Z,100.00
2023-07-19T01:57:16.398Z,100.00
2023-07-19T01:59:44.727Z,100.00
2023-07-19T02:02:12.990Z,100.00
2023-07-19T02:04:42.558Z,100.00
2023-07-19T02:07:10.720Z,100.00
2023-07-19T02:09:38.739Z,100.00
2023-07-19T02:12:07.367Z,100.00
2023-07-19T02:14:35.620Z,100.00
2023-07-19T02:17:04.575Z,100.00
2023-07-19T02:19:34.823Z,100.00
2023-07-19T02:22:02.894Z,100.00
2023-07-19T02:24:31.296Z,100.00
2023-07-19T02:26:59.903Z,100.00
2023-07-19T02:29:27.996Z,100.00
2023-07-19T02:31:56.514Z,100.00
2023-07-19T02:34:24.550Z,100.00
2023-07-19T02:36:52.748Z,100.00
2023-07-19T02:39:22.171Z,100.00
2023-07-19T02:41:50.199Z,100.00
2023-07-19T02:44:18.317Z,100.00
2023-07-19T02:46:46.688Z,100.00
2023-07-19T02:49:15.050Z,100.00
2023-07-19T02:51:43.114Z,100.00
2023-07-19T02:54:11.533Z,100.00
2023-07-19T02:56:39.689Z,100.00
2023-07-19T02:59:07.757Z,100.00
2023-07-19T03:01:37.628Z,100.00
2023-07-19T03:04:07.858Z,100.00
2023-07-19T03:06:36.213Z,100.00
2023-07-19T03:09:04.412Z,100.00
2023-07-19T03:11:32.415Z,100.00
2023-07-19T03:14:00.541Z,100.00
2023-07-19T03:16:28.677Z,100.00
2023-07-19T03:18:56.760Z,100.00
2023-07-19T03:21:24.910Z,100.00
2023-07-19T03:23:52.957Z,100.00
2023-07-19T03:26:20.963Z,100.00
2023-07-19T03:28:49.564Z,100.00
2023-07-19T03:31:18.100Z,100.00
2023-07-19T03:33:46.450Z,100.00
2023-07-19T03:36:14.461Z,100.00
2023-07-19T03:38:42.617Z,100.00
2023-07-19T03:41:11.578Z,100.00
2023-07-19T03:43:40.022Z,100.00
2023-07-19T03:46:09.282Z,100.00
2023-07-19T03:48:39.349Z,100.00
2023-07-19T03:51:07.913Z,100.00
2023-07-19T03:53:36.111Z,100.00
2023-07-19T03:56:04.593Z,100.00
2023-07-19T03:58:33.712Z,100.00
2023-07-19T04:01:04.324Z,100.00
2023-07-19T04:03:32.683Z,100.00
2023-07-19T04:06:00.971Z,100.00
2023-07-19T04:08:29.150Z,100.00
2023-07-19T04:10:57.207Z,100.00
2023-07-19T04:13:28.949Z,100.00
2023-07-19T04:15:57.370Z,100.00
2023-07-19T04:18:28.353Z,100.00
2023-07-19T04:20:58.696Z,100.00
2023-07-19T04:23:29.060Z,100.00
2023-07-19T04:25:57.234Z,100.00
2023-07-19T04:28:25.472Z,100.00
2023-07-19T04:30:53.597Z,100.00
2023-07-19T04:33:21.814Z,100.00
2023-07-19T04:35:52.150Z,100.00
2023-07-19T04:38:23.675Z,100.00
2023-07-19T04:40:51.761Z,100.00
2023-07-19T04:43:26.673Z,100.00
2023-07-19T04:45:56.781Z,100.00
2023-07-19T04:48:26.576Z,100.00
2023-07-19T04:50:57.845Z,100.00
2023-07-19T04:53:26.756Z,100.00
2023-07-19T04:55:57.453Z,100.00
2023-07-19T04:58:27.444Z,100.00
2023-07-19T05:00:55.664Z,100.00
2023-07-19T05:03:23.736Z,100.00
2023-07-19T05:05:51.712Z,100.00
2023-07-19T05:08:20.268Z,99.62
2023-07-19T05:10:48.268Z,99.77
2023-07-19T05:13:16.431Z,100.00
2023-07-19T05:15:44.546Z,96.29
2023-07-19T05:18:15.337Z,98.25
2023-07-19T05:20:43.545Z,91.64
2023-07-19T05:23:13.398Z,94.21
2023-07-19T05:25:41.613Z,90.91
2023-07-19T05:28:09.630Z,88.71
2023-07-19T05:30:37.660Z,92.01
2023-07-19T05:33:05.709Z,87.17
2023-07-19T05:35:35.058Z,81.71
2023-07-19T05:38:04.577Z,79.11
2023-07-19T05:40:32.770Z,78.94
2023-07-19T05:43:00.832Z,81.13
2023-07-19T05:45:28.944Z,76.45
2023-07-19T05:47:57.027Z,72.20
2023-07-19T05:50:25.091Z,73.35
2023-07-19T05:52:53.185Z,71.99
2023-07-19T05:55:21.201Z,71.83
2023-07-19T05:57:49.346Z,69.48
2023-07-19T06:00:25.987Z,69.86
2023-07-19T06:02:55.879Z,66.65
2023-07-19T06:05:26.134Z,65.98
2023-07-19T06:07:54.502Z,65.53
2023-07-19T06:10:22.714Z,64.19
2023-07-19T06:12:51.442Z,62.26
2023-07-19T06:15:19.544Z,60.38
2023-07-19T06:17:48.018Z,60.88
2023-07-19T06:20:16.078Z,58.29
2023-07-19T06:22:45.115Z,56.78
2023-07-19T06:25:13.407Z,54.29
2023-07-19T06:27:41.638Z,56.31
2023-07-19T06:30:11.356Z,55.28
2023-07-19T06:32:39.759Z,53.37
2023-07-19T06:35:10.505Z,54.86
2023-07-19T06:37:40.287Z,52.19
2023-07-19T06:40:09.340Z,51.85
2023-07-19T06:42:37.638Z,51.91
2023-07-19T06:45:06.431Z,51.37
2023-07-19T06:47:34.500Z,51.72
2023-07-19T06:50:03.022Z,50.00
2023-07-19T06:52:31.013Z,50.43
2023-07-19T06:54:58.967Z,49.27
2023-07-19T06:57:26.971Z,46.67
2023-07-19T06:59:55.017Z,45.50
2023-07-19T07:02:23.009Z,44.31
2023-07-19T07:04:51.687Z,45.25
2023-07-19T07:07:20.781Z,43.47
2023-07-19T07:09:48.951Z,43.52
2023-07-19T07:12:17.101Z,43.03
2023-07-19T07:14:45.179Z,43.01
2023-07-19T07:17:13.309Z,43.44
2023-07-19T07:19:41.415Z,43.58
2023-07-19T07:22:09.406Z,44.20
2023-07-19T07:24:37.390Z,44.23
2023-07-19T07:27:06.366Z,43.54
2023-07-19T07:29:34.331Z,42.68
2023-07-19T07:32:02.383Z,42.68
2023-07-19T07:34:30.489Z,42.35
2023-07-19T07:36:58.567Z,41.91
2023-07-19T07:39:26.587Z,41.30
2023-07-19T07:41:54.646Z,40.98
2023-07-19T07:44:22.776Z,40.08
2023-07-19T07:46:51.345Z,40.73
2023-07-19T07:49:19.390Z,40.41
2023-07-19T07:51:47.458Z,39.75
2023-07-19T07:54:15.581Z,39.32
2023-07-19T07:56:43.579Z,38.54
2023-07-19T07:59:11.627Z,39.51
2023-07-19T08:01:39.652Z,39.53
2023-07-19T08:04:10.338Z,39.91
2023-07-19T08:06:39.923Z,39.04
2023-07-19T08:09:07.940Z,38.75
2023-07-19T08:11:36.045Z,38.38
2023-07-19T08:14:04.095Z,38.29
2023-07-19T08:16:32.095Z,37.72
2023-07-19T08:19:00.196Z,37.06
2023-07-19T08:21:36.026Z,37.39
2023-07-19T08:24:05.604Z,37.98
2023-07-19T08:26:33.572Z,37.99
2023-07-19T08:29:01.583Z,37.92
2023-07-19T08:31:29.759Z,37.47
2023-07-19T08:33:57.999Z,37.46
2023-07-19T08:36:26.154Z,36.66
2023-07-19T08:38:54.351Z,36.96
2023-07-19T08:41:24.559Z,36.59
2023-07-19T08:43:56.823Z,36.49
2023-07-19T08:46:25.876Z,35.34
2023-07-19T08:48:54.068Z,35.23
2023-07-19T08:51:22.922Z,33.94
2023-07-19T08:53:51.129Z,33.44
2023-07-19T08:56:21.615Z,33.59
2023-07-19T08:58:49.678Z,32.83
2023-07-19T09:01:17.806Z,32.61
2023-07-19T09:03:46.125Z,31.90
2023-07-19T09:06:24.008Z,31.59
2023-07-19T09:08:53.319Z,32.25
2023-07-19T09:11:24.537Z,31.83
2023-07-19T09:13:57.621Z,31.18
2023-07-19T09:16:31.208Z,31.07
2023-07-19T09:19:00.904Z,31.45
2023-07-19T09:21:43.647Z,31.75
2023-07-19T09:24:13.204Z,31.89
2023-07-19T09:26:58.837Z,30.72
2023-07-19T09:29:32.154Z,30.88
2023-07-19T09:32:03.468Z,30.81
2023-07-19T09:34:39.444Z,30.42
2023-07-19T09:37:07.581Z,30.48
2023-07-19T09:39:36.436Z,29.62
2023-07-19T09:42:05.765Z,29.54
2023-07-19T09:44:35.064Z,29.74
2023-07-19T09:47:14.427Z,30.25
2023-07-19T09:49:47.047Z,30.24
2023-07-19T09:52:18.911Z,29.41
2023-07-19T09:54:47.140Z,29.38
2023-07-19T09:57:18.393Z,29.90
2023-07-19T09:59:51.217Z,29.28
2023-07-19T10:02:22.688Z,30.36
2023-07-19T10:04:52.456Z,29.80
2023-07-19T10:07:22.456Z,28.99
2023-07-19T10:09:53.679Z,28.92
2023-07-19T10:12:26.485Z,29.19
2023-07-19T10:15:01.457Z,29.48
2023-07-19T10:17:33.363Z,30.08
2023-07-19T10:20:14.263Z,30.97
2023-07-19T10:22:58.940Z,31.31
2023-07-19T10:25:29.201Z,31.57
2023-07-19T10:27:58.250Z,31.74
2023-07-19T10:30:45.586Z,32.66
2023-07-19T10:33:25.682Z,32.92
2023-07-19T10:35:56.818Z,32.86
2023-07-19T10:38:27.522Z,32.75
2023-07-19T10:41:04.273Z,32.57
2023-07-19T10:46:08.273Z,32.82
2023-07-19T10:48:41.578Z,33.05
2023-07-19T10:51:12.803Z,33.18
2023-07-19T10:53:41.844Z,33.39
2023-07-19T10:56:10.084Z,33.73
2023-07-19T10:58:38.527Z,34.35
2023-07-19T11:01:07.500Z,34.76
2023-07-19T11:03:35.819Z,34.97
2023-07-19T11:06:08.537Z,35.91
2023-07-19T11:08:36.673Z,36.99
2023-07-19T11:11:05.198Z,38.74
2023-07-19T11:13:33.911Z,40.54
2023-07-19T11:16:02.455Z,40.67
2023-07-19T11:18:36.416Z,40.03
2023-07-19T11:21:05.297Z,40.09
2023-07-19T11:23:39.617Z,39.92
2023-07-19T11:26:13.063Z,40.00
2023-07-19T11:28:54.030Z,40.35
2023-07-19T11:31:42.223Z,39.95
2023-07-19T11:34:17.801Z,39.22
2023-07-19T11:36:47.896Z,39.21
2023-07-19T11:39:22.580Z,38.80
2023-07-19T11:41:50.899Z,38.46
2023-07-19T11:44:21.775Z,38.22
2023-07-19T11:46:50.622Z,36.72
2023-07-19T11:49:19.663Z,36.10
2023-07-19T11:51:48.328Z,35.78
2023-07-19T11:54:16.574Z,36.10
2023-07-19T11:56:44.862Z,35.67
2023-07-19T11:59:12.868Z,34.39
2023-07-19T12:01:41.569Z,33.79
2023-07-19T12:04:10.260Z,34.90
2023-07-19T12:06:38.586Z,35.67
2023-07-19T12:09:06.622Z,36.67
2023-07-19T12:11:34.675Z,36.87
2023-07-19T12:14:03.545Z,37.89
2023-07-19T12:16:31.716Z,38.04
2023-07-19T12:18:59.851Z,38.37
2023-07-19T12:21:28.238Z,37.72
2023-07-19T12:23:59.566Z,37.78
2023-07-19T12:28:59.301Z,38.32
2023-07-19T12:31:27.586Z,39.20
2023-07-19T12:33:58.195Z,38.29
2023-07-19T12:36:26.405Z,37.15
2023-07-19T12:38:56.312Z,35.58
2023-07-19T12:41:24.350Z,35.22
2023-07-19T12:43:52.449Z,35.27
2023-07-19T12:46:21.218Z,35.19
2023-07-19T12:48:52.635Z,35.11
2023-07-19T12:51:21.293Z,34.47
2023-07-19T12:53:50.585Z,34.30
2023-07-19T12:56:19.690Z,34.57
2023-07-19T12:58:48.320Z,35.25
2023-07-19T13:01:16.884Z,37.95
2023-07-19T13:03:45.328Z,39.11
2023-07-19T13:06:13.505Z,40.27
2023-07-19T13:08:41.916Z,40.93
2023-07-19T13:11:10.282Z,40.14
2023-07-19T13:13:38.326Z,39.79
2023-07-19T13:16:06.381Z,39.73
2023-07-19T13:18:34.536Z,39.48
2023-07-19T13:21:02.624Z,39.63
2023-07-19T13:23:30.650Z,39.60
2023-07-19T13:25:58.767Z,39.72
2023-07-19T13:28:26.977Z,39.86
2023-07-19T13:30:59.324Z,40.33
2023-07-19T13:33:29.089Z,41.51
2023-07-19T13:36:00.045Z,41.49
2023-07-19T13:38:29.002Z,41.36
2023-07-19T13:40:57.075Z,41.87
2023-07-19T13:43:25.370Z,41.83
2023-07-19T13:45:53.628Z,41.60
2023-07-19T13:48:21.710Z,41.55
2023-07-19T13:50:49.698Z,40.86
2023-07-19T13:53:17.637Z,40.46
2023-07-19T13:55:45.637Z,40.73
2023-07-19T13:58:15.109Z,39.75
2023-07-19T14:00:43.386Z,40.67
2023-07-19T14:03:13.185Z,40.21
2023-07-19T14:05:41.386Z,39.11
2023-07-19T14:08:10.119Z,38.20
2023-07-19T14:10:38.512Z,38.35
2023-07-19T14:13:08.521Z,38.62
2023-07-19T14:15:37.451Z,39.30
2023-07-19T14:18:16.586Z,38.73
2023-07-19T14:20:46.313Z,39.17
2023-07-19T14:23:14.599Z,40.75
2023-07-19T14:25:42.807Z,41.41
2023-07-19T14:28:11.467Z,42.11
2023-07-19T14:30:40.808Z,42.19
2023-07-19T14:33:09.497Z,41.38
2023-07-19T14:35:37.695Z,41.75
2023-07-19T14:38:05.780Z,43.37
2023-07-19T14:40:38.397Z,44.72
2023-07-19T14:43:06.523Z,44.78
2023-07-19T14:45:36.142Z,44.67
2023-07-19T14:48:04.725Z,45.08
2023-07-19T14:50:32.888Z,45.86
2023-07-19T14:53:08.179Z,48.15
2023-07-19T14:55:36.415Z,47.68
2023-07-19T14:58:04.386Z,48.29
2023-07-19T15:03:03.397Z,48.57
2023-07-19T15:05:31.547Z,48.41
2023-07-19T15:07:59.551Z,49.19
2023-07-19T15:10:27.571Z,49.75
2023-07-19T15:12:57.138Z,50.00
2023-07-19T15:15:25.624Z,50.40
2023-07-19T15:17:54.549Z,51.67
2023-07-19T15:20:23.767Z,52.32
2023-07-19T15:22:55.290Z,52.88
2023-07-19T15:25:24.516Z,53.94
2023-07-19T15:27:52.862Z,54.76
2023-07-19T15:30:21.183Z,55.29
2023-07-19T15:32:49.263Z,55.61
2023-07-19T15:35:17.449Z,55.74
2023-07-19T15:37:45.754Z,57.23
2023-07-19T15:40:14.081Z,56.54
2023-07-19T15:42:42.081Z,57.20
2023-07-19T15:45:12.472Z,57.29
2023-07-19T15:47:40.810Z,58.75
2023-07-19T15:50:09.506Z,58.60
2023-07-19T15:52:37.962Z,58.48
2023-07-19T15:55:06.497Z,58.27
2023-07-19T15:57:34.559Z,58.54
2023-07-19T16:00:02.665Z,58.00
2023-07-19T16:02:33.629Z,58.46
2023-07-19T16:05:01.788Z,59.11
2023-07-19T16:07:29.927Z,59.41
2023-07-19T16:09:58.031Z,59.32
2023-07-19T16:12:26.189Z,58.92
2023-07-19T16:14:54.249Z,59.73
2023-07-19T16:17:22.287Z,60.58
2023-07-19T16:19:50.622Z,62.31
2023-07-19T16:22:18.656Z,65.08
2023-07-19T16:24:46.649Z,65.61
2023-07-19T16:27:14.692Z,67.92
2023-07-19T16:29:42.693Z,67.07
2023-07-19T16:32:10.833Z,67.92
2023-07-19T16:34:38.915Z,69.91
2023-07-19T16:37:07.458Z,69.18
2023-07-19T16:39:35.733Z,70.17
2023-07-19T16:42:05.337Z,68.57
2023-07-19T16:44:33.348Z,71.46
2023-07-19T16:47:01.480Z,67.37
2023-07-19T16:49:29.523Z,65.85
2023-07-19T16:51:59.087Z,67.32
2023-07-19T16:54:27.166Z,66.94
2023-07-19T16:56:55.212Z,67.69
2023-07-19T16:59:23.893Z,65.98
2023-07-19T17:01:52.026Z,67.25
2023-07-19T17:04:20.100Z,64.91
2023-07-19T17:06:48.371Z,64.86
2023-07-19T17:09:16.376Z,64.43
2023-07-19T17:11:44.451Z,64.89
2023-07-19T17:14:12.587Z,64.05
2023-07-19T17:16:40.530Z,64.40
2023-07-19T17:19:15.805Z,64.32
2023-07-19T17:21:46.242Z,65.47
2023-07-19T17:24:14.473Z,66.63
2023-07-19T17:26:42.676Z,65.41
2023-07-19T17:29:10.706Z,63.94
2023-07-19T17:31:38.729Z,64.42
2023-07-19T17:34:06.822Z,64.81
2023-07-19T17:36:34.919Z,64.37
2023-07-19T17:39:02.862Z,64.51
2023-07-19T17:41:30.926Z,64.30
2023-07-19T17:43:59.948Z,65.11
2023-07-19T17:46:28.057Z,66.27
2023-07-19T17:48:56.101Z,68.03
2023-07-19T17:51:24.258Z,67.59
2023-07-19T17:53:52.427Z,68.94
2023-07-19T17:56:20.499Z,71.37
2023-07-19T17:58:51.395Z,69.41
2023-07-19T18:01:20.941Z,69.49
2023-07-19T18:03:49.819Z,71.15
2023-07-19T18:06:19.362Z,71.57
2023-07-19T18:08:47.396Z,73.48
2023-07-19T18:11:15.552Z,76.15
2023-07-19T18:13:43.657Z,78.51
2023-07-19T18:16:11.652Z,81.13
2023-07-19T18:18:39.729Z,77.51
2023-07-19T18:21:07.717Z,83.56
2023-07-19T18:23:38.532Z,85.78
2023-07-19T18:26:06.698Z,85.61
2023-07-19T18:28:36.432Z,83.16
2023-07-19T18:31:04.809Z,80.63
2023-07-19T18:33:33.361Z,82.05
2023-07-19T18:36:01.380Z,88.45
2023-07-19T18:38:29.553Z,89.01
2023-07-19T18:40:57.929Z,92.23
2023-07-19T18:43:26.066Z,94.45
2023-07-19T18:45:55.764Z,97.72
2023-07-19T18:48:24.228Z,90.83
2023-07-19T18:50:52.252Z,91.09
2023-07-19T18:53:26.202Z,95.28
2023-07-19T18:55:54.273Z,96.35
2023-07-19T18:58:22.334Z,91.62
2023-07-19T19:00:50.428Z,94.41
2023-07-19T19:03:18.579Z,90.75
2023-07-19T19:05:47.717Z,94.96
2023-07-19T19:08:17.175Z,100.00
2023-07-19T19:10:45.597Z,100.00
2023-07-19T19:13:13.635Z,100.00
2023-07-19T19:15:41.977Z,100.00
2023-07-19T19:18:10.523Z,100.00
2023-07-19T19:20:38.638Z,100.00
2023-07-19T19:23:08.785Z,100.00
2023-07-19T19:25:36.866Z,100.00
2023-07-19T19:30:50.484Z,100.00
2023-07-19T19:33:18.817Z,100.00
2023-07-19T19:35:46.873Z,100.00
2023-07-19T19:38:15.322Z,100.00
2023-07-19T19:40:43.594Z,100.00
2023-07-19T19:43:11.570Z,100.00
2023-07-19T19:45:39.567Z,100.00
2023-07-19T19:48:07.769Z,100.00
2023-07-19T19:50:35.787Z,100.00
2023-07-19T19:53:10.473Z,100.00
2023-07-19T19:58:12.226Z,100.00
2023-07-19T20:00:41.766Z,100.00
2023-07-19T20:08:12.782Z,100.00
2023-07-19T20:10:59.185Z,100.00
2023-07-19T20:13:28.075Z,100.00
2023-07-19T20:16:00.878Z,100.00
2023-07-19T20:21:01.121Z,100.00
2023-07-19T20:23:29.511Z,100.00
2023-07-19T20:26:11.886Z,100.00
2023-07-19T20:28:41.574Z,100.00
2023-07-19T20:31:09.547Z,100.00
2023-07-19T20:33:41.833Z,100.00
2023-07-19T20:36:45.643Z,100.00
2023-07-19T20:38:59.702Z,100.00
2023-07-19T20:43:58.975Z,100.00
2023-07-19T20:46:26.956Z,100.00
2023-07-19T20:49:04.379Z,100.00
2023-07-19T20:51:34.334Z,100.00
2023-07-19T20:54:06.553Z,100.00
2023-07-19T20:56:37.173Z,100.00
2023-07-19T20:59:08.569Z,100.00
2023-07-19T21:01:40.054Z,100.00
2023-07-19T21:04:08.704Z,100.00
2023-07-19T21:06:39.869Z,100.00
2023-07-19T21:09:07.932Z,100.00
2023-07-19T21:11:36.536Z,100.00
2023-07-19T21:14:04.744Z,100.00
2023-07-19T21:16:33.398Z,100.00
2023-07-19T21:19:01.517Z,100.00
2023-07-19T21:21:29.746Z,100.00
2023-07-19T21:23:57.777Z,100.00
2023-07-19T21:26:26.155Z,100.00
2023-07-19T21:28:54.160Z,100.00
2023-07-19T21:31:27.399Z,100.00
2023-07-19T21:33:58.119Z,100.00
2023-07-19T21:36:26.323Z,100.00
2023-07-19T21:38:54.264Z,100.00
2023-07-19T21:41:22.446Z,100.00
2023-07-19T21:43:50.758Z,100.00
2023-07-19T21:46:18.979Z,100.00
2023-07-19T21:48:47.151Z,100.00
2023-07-19T21:51:15.290Z,100.00
2023-07-19T21:53:43.208Z,100.00
2023-07-19T21:56:11.110Z,100.00
2023-07-19T21:58:39.151Z,100.00
2023-07-19T22:01:07.200Z,100.00
2023-07-19T22:03:35.260Z,100.00
2023-07-19T22:06:03.822Z,100.00
2023-07-19T22:08:31.935Z,100.00
2023-07-19T22:10:59.996Z,100.00
2023-07-19T22:13:28.122Z,100.00
2023-07-19T22:15:56.031Z,100.00
2023-07-19T22:18:27.584Z,100.00
2023-07-19T22:21:07.210Z,100.00
2023-07-19T22:23:44.034Z,100.00
2023-07-19T22:26:12.032Z,100.00
2023-07-19T22:28:40.137Z,100.00
2023-07-19T22:31:08.173Z,100.00
2023-07-19T22:33:36.214Z,100.00
2023-07-19T22:36:04.740Z,100.00
2023-07-19T22:38:33.157Z,100.00
2023-07-19T22:41:01.132Z,100.00
2023-07-19T22:43:29.822Z,100.00
2023-07-19T22:45:57.853Z,100.00
2023-07-19T22:48:25.904Z,100.00
2023-07-19T22:50:54.009Z,100.00
2023-07-19T22:53:22.362Z,100.00
2023-07-19T22:55:50.493Z,100.00
2023-07-19T22:58:18.457Z,100.00
2023-07-19T23:00:48.183Z,100.00
2023-07-19T23:03:16.257Z,100.00
2023-07-19T23:05:44.212Z,100.00
2023-07-19T23:08:12.159Z,100.00
2023-07-19T23:10:40.144Z,100.00
2023-07-19T23:13:08.220Z,100.00
2023-07-19T23:15:36.198Z,100.00
2023-07-19T23:18:04.213Z,100.00
2023-07-19T23:20:32.308Z,100.00
2023-07-19T23:23:01.329Z,100.00
2023-07-19T23:25:29.426Z,100.00
2023-07-19T23:28:01.173Z,100.00
2023-07-19T23:30:29.520Z,100.00
2023-07-19T23:32:58.974Z,100.00
2023-07-19T23:35:27.110Z,100.00
2023-07-19T23:37:56.013Z,100.00
2023-07-19T23:40:24.415Z,100.00
2023-07-19T23:42:52.834Z,100.00
2023-07-19T23:45:20.923Z,100.00
2023-07-19T23:47:49.962Z,100.00
2023-07-19T23:50:18.308Z,100.00
2023-07-19T23:52:46.324Z,100.00
2023-07-19T23:55:14.485Z,100.00
2023-07-19T23:57:42.377Z,100.00
